Nova Tebas, Brazil
Current Conditions -  °F | °C
As of 5:00 AM on Monday 20 Oct 2014 (Local Time) from SBMG Reporting Station
Broken Clouds Broken Clouds  
Wind Chill: 66°   Ceiling: 10000
Heat Index: 66°   Visibility: 6mi
Dew Point: 64°   Wind: 1mph
Humidity: 94%   Direction: 320°NW
Pressure: 29.97"   Gusts: NA
Location:  24.44°S, 51.95°W
Report Text: SBMG 200800Z 32001KT 9999 FEW022 SCT045 BKN100 19/18 Q1015
Loading
Personal Weather Stations






























Interactive Weather Map
Tropical Storm Tracking
New forecast layout! Learn more

10-Day Weather Forecast

Advertisements
Track Severe Weather on mobile